Terminal Aerodrome Forecast
Issued by NWS

Home | Current Version | Previous Version | Text Only | Print | Product List | Glossary On
Versions: 1 2 3 4 5 6 7 8 9 10 11 12 13 14 15 16 17 18 19
000
FTUS43 KMPX 022343
TAFRNH
TAF
KRNH 022343Z 0300/0324 10004KT P6SM BKN040
     FM030600 11004KT 5SM BR FEW008
     FM030900 10004KT 3/4SM BR OVC006
     FM031500 13006KT P6SM SCT008 BKN015
     FM031800 13008KT P6SM SCT025=

USA.gov is the U.S. government's official web portal to all federal, state and local government web resources and services.